LIEE/CAG METAR and TAF weather

Enter ICAO airport designator
Station Type Date Time Source
LIEE METAR 2019/06/27 10:20 UTC NOAA

LIEE 271020Z 21007KT CAVOK 33/17 Q1018


Station Type Date Time Source
LIEE Decoded METAR 2019/06/27 10:20 UTC NOAA

Cagliari / Elmas, Italy (LIEE) 39-15N 009-04E 5M
Jun 27, 2019 - 06:20 AM EDT / 2019.06.27 1020 UTC
Wind: from the SSW (210 degrees) at 8 MPH (7 KT):0
Visibility: greater than 7 mile(s):0
Temperature: 91 F (33 C)
Dew Point: 62 F (17 C)
Relative Humidity: 38%
Pressure (altimeter): 30.06 in. Hg (1018 hPa)
ob: LIEE 271020Z 21007KT CAVOK 33/17 Q1018
cycle: 10

Station Type Date Time Source
LIEE TAF 2019/06/27 06:21 UTC NOAA

TAF LIEE 270500Z 2706/2806 33006KT CAVOK
BECMG 2710/2712 16012KT
BECMG 2718/2720 VRB05KT

Example: see airport list